Time,TemperatureF,DewpointF,PressureIn,WindDirection,WindDirectionDegrees,WindSpeedMPH,WindSpeedGustMPH,Humidity,HourlyPrecipIn,Conditions,Clouds,dailyrainin,SoftwareType,DateUTC
2013-02-21 00:09:00,23.9,-5.3,30.14,WNW,295,7.0,15.0,27,0.00,CLR,,0.00,WeatherDisplay:10.37,2013-02-21 05:09:00,
2013-02-21 00:19:00,23.5,-5.6,30.14,WNW,288,7.0,13.0,27,0.00,CLR,,0.00,WeatherDisplay:10.37,2013-02-21 05:19:00,
2013-02-21 00:29:00,23.4,-5.8,30.14,WNW,284,7.0,16.0,27,0.00,CLR,,0.00,WeatherDisplay:10.37,2013-02-21 05:29:00,
2013-02-21 00:39:00,23.4,-5.8,30.14,WNW,283,7.0,12.0,27,0.00,CLR,,0.00,WeatherDisplay:10.37,2013-02-21 05:39:00,
2013-02-21 00:49:00,23.4,-5.8,30.14,WNW,299,8.0,13.0,27,0.00,CLR,,0.00,WeatherDisplay:10.37,2013-02-21 05:49:00,
2013-02-21 00:59:00,23.2,-5.9,30.14,WNW,286,8.0,15.0,27,0.00,CLR,,0.00,WeatherDisplay:10.37,2013-02-21 05:59:00,
2013-02-21 01:09:00,23.0,-6.1,30.14,WNW,287,8.0,15.0,27,0.00,CLR,,0.00,WeatherDisplay:10.37,2013-02-21 06:09:00,
2013-02-21 01:19:00,23.2,-5.9,30.14,WNW,287,8.0,15.0,27,0.00,CLR,,0.00,WeatherDisplay:10.37,2013-02-21 06:19:00,
2013-02-21 01:29:00,23.3,-5.8,30.14,West,276,9.0,17.0,27,0.00,CLR,,0.00,WeatherDisplay:10.37,2013-02-21 06:29:00,
2013-02-21 01:39:00,23.2,-5.9,30.14,WNW,285,7.0,17.0,27,0.00,CLR,,0.00,WeatherDisplay:10.37,2013-02-21 06:39:00,
2013-02-21 01:49:00,23.0,-5.3,30.14,WNW,284,9.0,15.0,28,0.00,CLR,,0.00,WeatherDisplay:10.37,2013-02-21 06:49:00,
2013-02-21 01:59:00,23.2,-3.7,30.14,WNW,285,9.0,14.0,30,0.00,CLR,,0.00,WeatherDisplay:10.37,2013-02-21 06:59:00,
2013-02-21 02:09:00,23.2,-5.9,30.11,WNW,285,12.0,24.0,27,0.00,CLR,,0.00,WeatherDisplay:10.37,2013-02-21 07:09:00,
2013-02-21 02:19:00,23.2,-5.9,30.11,WNW,293,8.0,15.0,27,0.00,CLR,,0.00,WeatherDisplay:10.37,2013-02-21 07:19:00,
2013-02-21 02:29:00,23.2,-5.9,30.14,WNW,290,12.0,15.0,27,0.00,CLR,,0.00,WeatherDisplay:10.37,2013-02-21 07:29:00,
2013-02-21 02:39:00,23.0,-6.1,30.14,West,281,7.0,13.0,27,0.00,CLR,,0.00,WeatherDisplay:10.37,2013-02-21 07:39:00,
2013-02-21 02:49:00,23.0,-4.6,30.14,WNW,282,10.0,17.0,29,0.00,CLR,,0.00,WeatherDisplay:10.37,2013-02-21 07:49:00,
2013-02-21 02:59:00,23.0,-3.9,30.11,WNW,292,8.0,13.0,30,0.00,CLR,,0.00,WeatherDisplay:10.37,2013-02-21 07:59:00,
2013-02-21 03:09:00,23.0,-3.9,30.11,WNW,294,6.0,13.0,30,0.00,CLR,,0.00,WeatherDisplay:10.37,2013-02-21 08:09:00,
2013-02-21 03:19:00,23.0,-3.9,30.11,WNW,297,7.0,12.0,30,0.00,CLR,,0.00,WeatherDisplay:10.37,2013-02-21 08:19:00,
2013-02-21 03:29:00,23.2,-3.7,30.11,WNW,301,5.0,11.0,30,0.00,CLR,,0.00,WeatherDisplay:10.37,2013-02-21 08:29:00,
2013-02-21 03:39:00,23.2,-3.7,30.14,West,280,7.0,12.0,30,0.00,CLR,,0.00,WeatherDisplay:10.37,2013-02-21 08:39:00,
2013-02-21 03:49:00,23.2,-3.7,30.14,WNW,295,8.0,12.0,30,0.00,CLR,,0.00,WeatherDisplay:10.37,2013-02-21 08:49:00,
2013-02-21 03:59:00,23.2,-3.7,30.11,WNW,289,12.0,16.0,30,0.00,CLR,,0.00,WeatherDisplay:10.37,2013-02-21 08:59:00,
2013-02-21 04:09:00,23.4,-4.3,30.11,WNW,300,8.0,17.0,29,0.00,CLR,,0.00,WeatherDisplay:10.37,2013-02-21 09:09:00,
2013-02-21 04:19:00,23.5,-4.1,30.11,WNW,290,9.0,15.0,29,0.00,CLR,,0.00,WeatherDisplay:10.37,2013-02-21 09:19:00,
2013-02-21 04:29:00,23.5,-4.1,30.14,WNW,301,8.0,16.0,29,0.00,CLR,,0.00,WeatherDisplay:10.37,2013-02-21 09:29:00,
2013-02-21 04:39:00,23.7,-4.0,30.14,WNW,296,8.0,15.0,29,0.00,CLR,,0.00,WeatherDisplay:10.37,2013-02-21 09:39:00,
2013-02-21 04:49:00,23.7,-4.0,30.14,WNW,284,8.0,16.0,29,0.00,CLR,,0.00,WeatherDisplay:10.37,2013-02-21 09:49:00,
2013-02-21 04:59:00,23.7,-4.0,30.14,WNW,290,9.0,13.0,29,0.00,CLR,,0.00,WeatherDisplay:10.37,2013-02-21 09:59:00,
2013-02-21 05:09:00,23.7,-4.0,30.14,West,281,7.0,17.0,29,0.00,CLR,,0.00,WeatherDisplay:10.37,2013-02-21 10:09:00,
2013-02-21 05:19:00,23.7,-1.9,30.14,WNW,282,6.0,13.0,32,0.00,CLR,,0.00,WeatherDisplay:10.37,2013-02-21 10:19:00,
2013-02-21 05:29:00,23.7,-1.9,30.14,WNW,290,9.0,15.0,32,0.00,CLR,,0.00,WeatherDisplay:10.37,2013-02-21 10:29:00,
2013-02-21 05:39:00,23.7,-2.6,30.14,WNW,303,9.0,13.0,31,0.00,CLR,,0.00,WeatherDisplay:10.37,2013-02-21 10:39:00,
2013-02-21 05:49:00,23.7,-1.9,30.14,WNW,283,7.0,13.0,32,0.00,CLR,,0.00,WeatherDisplay:10.37,2013-02-21 10:49:00,
2013-02-21 05:59:00,23.7,-1.9,30.14,WNW,288,7.0,12.0,32,0.00,CLR,,0.00,WeatherDisplay:10.37,2013-02-21 10:59:00,
2013-02-21 06:09:00,23.7,-1.9,30.14,WNW,286,5.0,11.0,32,0.00,CLR,,0.00,WeatherDisplay:10.37,2013-02-21 11:09:00,
2013-02-21 06:19:00,23.6,-2.0,30.14,WNW,298,6.0,12.0,32,0.00,CLR,,0.00,WeatherDisplay:10.37,2013-02-21 11:19:00,
2013-02-21 06:29:00,23.5,-1.4,30.14,NW,316,8.0,13.0,33,0.00,CLR,,0.00,WeatherDisplay:10.37,2013-02-21 11:29:00,
2013-02-21 06:39:00,23.5,-1.4,30.14,NW,313,7.0,17.0,33,0.00,CLR,,0.00,WeatherDisplay:10.37,2013-02-21 11:39:00,
2013-02-21 06:49:00,23.5,-1.4,30.14,NW,310,9.0,13.0,33,0.00,CLR,,0.00,WeatherDisplay:10.37,2013-02-21 11:49:00,
2013-02-21 06:59:00,23.5,-1.4,30.17,NW,314,8.0,13.0,33,0.00,CLR,,0.00,WeatherDisplay:10.37,2013-02-21 11:59:00,
2013-02-21 07:09:00,23.5,-1.4,30.17,WNW,294,8.0,13.0,33,0.00,CLR,,0.00,WeatherDisplay:10.37,2013-02-21 12:09:00,
2013-02-21 07:19:00,23.5,-2.1,30.17,WNW,294,8.0,13.0,32,0.00,CLR,,0.00,WeatherDisplay:10.37,2013-02-21 12:19:00,
2013-02-21 07:29:00,23.7,-1.9,30.17,WNW,293,9.0,13.0,32,0.00,CLR,,0.00,WeatherDisplay:10.37,2013-02-21 12:29:00,
2013-02-21 07:39:00,23.7,-1.9,30.17,NW,305,8.0,17.0,32,0.00,CLR,,0.00,WeatherDisplay:10.37,2013-02-21 12:39:00,
2013-02-21 07:49:00,23.7,-1.9,30.17,WNW,289,9.0,15.0,32,0.00,CLR,,0.00,WeatherDisplay:10.37,2013-02-21 12:49:00,
2013-02-21 07:59:00,23.7,-1.2,30.17,WNW,286,8.0,14.0,33,0.00,CLR,,0.00,WeatherDisplay:10.37,2013-02-21 12:59:00,
2013-02-21 08:09:00,23.7,-1.2,30.17,WNW,291,8.0,13.0,33,0.00,CLR,,0.00,WeatherDisplay:10.37,2013-02-21 13:09:00,
2013-02-21 08:19:00,24.3,-0.7,30.17,West,281,7.0,13.0,33,0.00,CLR,,0.00,WeatherDisplay:10.37,2013-02-21 13:19:00,
2013-02-21 08:29:00,24.6,-0.4,30.17,WNW,283,8.0,15.0,33,0.00,CLR,,0.00,WeatherDisplay:10.37,2013-02-21 13:29:00,
2013-02-21 08:39:00,25.0,-0.1,30.17,WNW,294,8.0,14.0,33,0.00,CLR,,0.00,WeatherDisplay:10.37,2013-02-21 13:39:00,
2013-02-21 08:49:00,25.4,-0.4,30.17,WNW,297,9.0,16.0,32,0.00,CLR,,0.00,WeatherDisplay:10.37,2013-02-21 13:49:00,
2013-02-21 08:59:00,25.5,-0.3,30.17,WNW,299,9.0,16.0,32,0.00,CLR,,0.00,WeatherDisplay:10.37,2013-02-21 13:59:00,
2013-02-21 09:09:00,25.9,-0.7,30.17,NW,305,10.0,17.0,31,0.00,CLR,,0.00,WeatherDisplay:10.37,2013-02-21 14:09:00,
2013-02-21 09:19:00,26.4,-0.9,30.17,NW,315,10.0,17.0,30,0.00,CLR,,0.00,WeatherDisplay:10.37,2013-02-21 14:19:00,
2013-02-21 09:29:00,26.2,-4.1,30.17,WNW,296,10.0,25.0,26,0.00,CLR,,0.00,WeatherDisplay:10.37,2013-02-21 14:29:00,
2013-02-21 09:39:00,26.4,-1.6,30.17,NW,317,9.0,17.0,29,0.00,CLR,,0.00,WeatherDisplay:10.37,2013-02-21 14:39:00,
2013-02-21 09:49:00,26.6,-3.7,30.17,NW,317,8.0,17.0,26,0.00,CLR,,0.00,WeatherDisplay:10.37,2013-02-21 14:49:00,
2013-02-21 09:59:00,27.7,-1.3,30.20,NW,317,14.0,20.0,28,0.00,CLR,,0.00,WeatherDisplay:10.37,2013-02-21 14:59:00,
2013-02-21 10:09:00,28.6,-2.0,30.20,WNW,302,10.0,17.0,26,0.00,CLR,,0.00,WeatherDisplay:10.37,2013-02-21 15:09:00,
2013-02-21 10:19:00,29.2,-2.3,30.20,WNW,299,9.0,17.0,25,0.00,CLR,,0.00,WeatherDisplay:10.37,2013-02-21 15:19:00,
2013-02-21 10:29:00,29.2,-2.3,30.20,WNW,296,9.0,18.0,25,0.00,CLR,,0.00,WeatherDisplay:10.37,2013-02-21 15:29:00,
2013-02-21 10:39:00,29.3,-4.0,30.20,WNW,290,13.0,20.0,23,0.00,CLR,,0.00,WeatherDisplay:10.37,2013-02-21 15:39:00,
2013-02-21 10:49:00,29.7,-3.7,30.20,WNW,296,9.0,18.0,23,0.00,CLR,,0.00,WeatherDisplay:10.37,2013-02-21 15:49:00,
2013-02-21 10:59:00,30.3,-2.3,30.20,WNW,286,13.0,18.0,24,0.00,CLR,,0.00,WeatherDisplay:10.37,2013-02-21 15:59:00,
2013-02-21 11:09:00,30.8,-1.8,30.20,WNW,289,10.0,18.0,24,0.00,CLR,,0.00,WeatherDisplay:10.37,2013-02-21 16:09:00,
2013-02-21 11:19:00,31.1,-2.5,30.20,WNW,291,10.0,20.0,23,0.00,CLR,,0.00,WeatherDisplay:10.37,2013-02-21 16:19:00,
2013-02-21 11:29:00,31.8,-1.8,30.20,WNW,293,8.0,23.0,23,0.00,CLR,,0.00,WeatherDisplay:10.37,2013-02-21 16:29:00,
2013-02-21 11:39:00,31.8,-1.8,30.20,NW,307,12.0,23.0,23,0.00,CLR,,0.00,WeatherDisplay:10.37,2013-02-21 16:39:00,
2013-02-21 11:49:00,32.0,-1.7,30.20,NW,319,12.0,18.0,23,0.00,CLR,,0.00,WeatherDisplay:10.37,2013-02-21 16:49:00,
2013-02-21 11:59:00,32.1,-1.6,30.20,NW,313,9.0,21.0,23,0.00,CLR,,0.00,WeatherDisplay:10.37,2013-02-21 16:59:00,
2013-02-21 12:09:00,32.4,-1.4,30.20,NW,311,10.0,17.0,23,0.00,CLR,,0.00,WeatherDisplay:10.37,2013-02-21 17:09:00,
2013-02-21 12:19:00,33.2,-0.6,30.20,WNW,300,13.0,17.0,23,0.00,CLR,,0.00,WeatherDisplay:10.37,2013-02-21 17:19:00,
2013-02-21 12:29:00,32.7,-1.1,30.20,WNW,295,7.0,20.0,23,0.00,CLR,,0.00,WeatherDisplay:10.37,2013-02-21 17:29:00,
2013-02-21 12:39:00,33.3,-0.6,30.20,NW,312,10.0,23.0,23,0.00,CLR,,0.00,WeatherDisplay:10.37,2013-02-21 17:39:00,
2013-02-21 12:49:00,33.8,-0.2,30.20,NW,307,9.0,16.0,23,0.00,CLR,,0.00,WeatherDisplay:10.37,2013-02-21 17:49:00,
2013-02-21 12:59:00,33.8,-0.2,30.20,NW,306,9.0,17.0,23,0.00,CLR,,0.00,WeatherDisplay:10.37,2013-02-21 17:59:00,
2013-02-21 13:09:00,34.0,-1.0,30.17,NW,306,9.0,17.0,22,0.00,CLR,,0.00,WeatherDisplay:10.37,2013-02-21 18:09:00,
2013-02-21 13:19:00,34.1,-1.9,30.17,NW,316,10.0,17.0,21,0.00,CLR,,0.00,WeatherDisplay:10.37,2013-02-21 18:19:00,
2013-02-21 13:29:00,34.8,-0.3,30.17,NW,314,9.0,15.0,22,0.00,CLR,,0.00,WeatherDisplay:10.37,2013-02-21 18:29:00,
2013-02-21 13:39:00,34.5,-0.5,30.17,WNW,300,9.0,15.0,22,0.00,CLR,,0.00,WeatherDisplay:10.37,2013-02-21 18:39:00,
2013-02-21 13:49:00,34.7,-0.3,30.17,NW,307,9.0,18.0,22,0.00,CLR,,0.00,WeatherDisplay:10.37,2013-02-21 18:49:00,
2013-02-21 13:59:00,34.7,-2.4,30.17,WNW,298,8.0,16.0,20,0.00,CLR,,0.00,WeatherDisplay:10.37,2013-02-21 18:59:00,
2013-02-21 14:09:00,35.2,0.1,30.17,West,276,10.0,17.0,22,0.00,CLR,,0.00,WeatherDisplay:10.37,2013-02-21 19:09:00,
2013-02-21 14:19:00,35.3,0.1,30.17,WNW,297,12.0,20.0,22,0.00,CLR,,0.00,WeatherDisplay:10.37,2013-02-21 19:19:00,
2013-02-21 14:29:00,35.4,0.3,30.17,West,281,15.0,20.0,22,0.00,CLR,,0.00,WeatherDisplay:10.37,2013-02-21 19:29:00,
2013-02-21 14:39:00,35.6,-1.6,30.17,NW,314,12.0,15.0,20,0.00,CLR,,0.00,WeatherDisplay:10.37,2013-02-21 19:39:00,
2013-02-21 14:49:00,35.6,0.4,30.17,WNW,302,10.0,23.0,22,0.00,CLR,,0.00,WeatherDisplay:10.37,2013-02-21 19:49:00,
2013-02-21 14:59:00,35.6,-1.6,30.17,WNW,299,8.0,17.0,20,0.00,CLR,,0.00,WeatherDisplay:10.37,2013-02-21 19:59:00,
2013-02-21 15:09:00,35.4,-1.8,30.17,WNW,301,10.0,18.0,20,0.00,CLR,,0.00,WeatherDisplay:10.37,2013-02-21 20:09:00,
2013-02-21 15:19:00,35.6,0.4,30.17,WNW,297,8.0,15.0,22,0.00,CLR,,0.00,WeatherDisplay:10.37,2013-02-21 20:19:00,
2013-02-21 15:29:00,35.2,-0.9,30.20,WNW,290,10.0,17.0,21,0.00,CLR,,0.00,WeatherDisplay:10.37,2013-02-21 20:29:00,
2013-02-21 15:39:00,35.1,-2.1,30.20,WNW,293,10.0,17.0,20,0.00,CLR,,0.00,WeatherDisplay:10.37,2013-02-21 20:39:00,
2013-02-21 15:49:00,35.6,-1.6,30.20,NW,304,7.0,16.0,20,0.00,CLR,,0.00,WeatherDisplay:10.37,2013-02-21 20:49:00,
2013-02-21 15:59:00,34.9,-2.2,30.20,NW,311,8.0,15.0,20,0.00,CLR,,0.00,WeatherDisplay:10.37,2013-02-21 20:59:00,
2013-02-21 16:09:00,34.9,-0.2,30.20,NW,322,8.0,16.0,22,0.00,CLR,,0.00,WeatherDisplay:10.37,2013-02-21 21:09:00,
2013-02-21 16:19:00,34.5,-2.5,30.20,NW,317,9.0,13.0,20,0.00,CLR,,0.00,WeatherDisplay:10.37,2013-02-21 21:19:00,
2013-02-21 16:29:00,34.3,-2.7,30.20,NNW,329,10.0,13.0,20,0.00,CLR,,0.00,WeatherDisplay:10.37,2013-02-21 21:29:00,
2013-02-21 16:39:00,34.0,-1.0,30.20,NW,322,9.0,13.0,22,0.00,CLR,,0.00,WeatherDisplay:10.37,2013-02-21 21:39:00,
2013-02-21 16:49:00,33.8,-3.1,30.20,NW,316,8.0,15.0,20,0.00,CLR,,0.00,WeatherDisplay:10.37,2013-02-21 21:49:00,
2013-02-21 16:59:00,33.6,-3.3,30.20,NW,313,6.0,13.0,20,0.00,CLR,,0.00,WeatherDisplay:10.37,2013-02-21 21:59:00,
2013-02-21 17:09:00,33.4,-3.4,30.23,WNW,302,6.0,9.0,20,0.00,CLR,,0.00,WeatherDisplay:10.37,2013-02-21 22:09:00,
2013-02-21 17:19:00,33.3,-3.6,30.23,WNW,289,5.0,9.0,20,0.00,CLR,,0.00,WeatherDisplay:10.37,2013-02-21 22:19:00,
2013-02-21 17:29:00,33.1,-3.7,30.23,WNW,287,6.0,9.0,20,0.00,CLR,,0.00,WeatherDisplay:10.37,2013-02-21 22:29:00,
2013-02-21 17:39:00,32.4,-1.4,30.26,West,279,7.0,13.0,23,0.00,CLR,,0.00,WeatherDisplay:10.37,2013-02-21 22:39:00,
2013-02-21 17:49:00,31.4,-2.2,30.26,WNW,292,7.0,10.0,23,0.00,CLR,,0.00,WeatherDisplay:10.37,2013-02-21 22:49:00,
2013-02-21 17:59:00,30.9,-2.6,30.26,WNW,293,6.0,10.0,23,0.00,CLR,,0.00,WeatherDisplay:10.37,2013-02-21 22:59:00,
2013-02-21 18:09:00,30.4,-3.1,30.26,West,281,5.0,8.0,23,0.00,CLR,,0.00,WeatherDisplay:10.37,2013-02-21 23:09:00,
2013-02-21 18:19:00,29.7,-1.9,30.26,NW,305,3.0,8.0,25,0.00,CLR,,0.00,WeatherDisplay:10.37,2013-02-21 23:19:00,
2013-02-21 18:29:00,29.5,-2.1,30.26,NW,312,0.0,5.0,25,0.00,CLR,,0.00,WeatherDisplay:10.37,2013-02-21 23:29:00,
2013-02-21 18:39:00,29.5,-2.1,30.29,WNW,284,2.0,8.0,25,0.00,CLR,,0.00,WeatherDisplay:10.37,2013-02-21 23:39:00,
2013-02-21 18:49:00,29.5,0.3,30.29,NW,305,6.0,11.0,28,0.00,CLR,,0.00,WeatherDisplay:10.37,2013-02-21 23:49:00,
2013-02-21 18:59:00,29.3,0.2,30.29,WNW,301,5.0,7.0,28,0.00,CLR,,0.00,WeatherDisplay:10.37,2013-02-21 23:59:00,
2013-02-21 19:09:00,28.9,1.3,30.29,NW,313,6.0,8.0,30,0.00,CLR,,0.00,WeatherDisplay:10.37,2013-02-22 00:09:00,
2013-02-21 19:19:00,28.9,1.3,30.29,NW,315,5.0,9.0,30,0.00,CLR,,0.00,WeatherDisplay:10.37,2013-02-22 00:19:00,
2013-02-21 19:29:00,28.8,1.2,30.29,West,281,5.0,9.0,30,0.00,CLR,,0.00,WeatherDisplay:10.37,2013-02-22 00:29:00,
2013-02-21 19:39:00,28.6,1.7,30.29,NW,316,6.0,8.0,31,0.00,CLR,,0.00,WeatherDisplay:10.37,2013-02-22 00:39:00,
2013-02-21 19:49:00,28.2,1.4,30.29,NW,316,5.0,8.0,31,0.00,CLR,,0.00,WeatherDisplay:10.37,2013-02-22 00:49:00,
2013-02-21 19:59:00,28.0,1.2,30.29,WNW,294,0.0,5.0,31,0.00,CLR,,0.00,WeatherDisplay:10.37,2013-02-22 00:59:00,
2013-02-21 20:09:00,27.7,0.9,30.32,WSW,237,2.0,6.0,31,0.00,CLR,,0.00,WeatherDisplay:10.37,2013-02-22 01:09:00,
2013-02-21 20:19:00,27.3,1.3,30.32,West,268,3.0,6.0,32,0.00,CLR,,0.00,WeatherDisplay:10.37,2013-02-22 01:19:00,
2013-02-21 20:29:00,26.8,0.8,30.32,West,270,0.0,3.0,32,0.00,CLR,,0.00,WeatherDisplay:10.37,2013-02-22 01:29:00,
2013-02-21 20:39:00,26.2,0.3,30.32,West,263,0.0,3.0,32,0.00,CLR,,0.00,WeatherDisplay:10.37,2013-02-22 01:39:00,
2013-02-21 20:49:00,25.6,-0.2,30.32,WSW,248,0.0,0.0,32,0.00,CLR,,0.00,WeatherDisplay:10.37,2013-02-22 01:49:00,
2013-02-21 20:59:00,24.6,0.2,30.32,NNW,340,0.0,0.0,34,0.00,CLR,,0.00,WeatherDisplay:10.37,2013-02-22 01:59:00,
2013-02-21 21:09:00,24.8,1.6,30.32,NNW,340,0.0,0.0,36,0.00,CLR,,0.00,WeatherDisplay:10.37,2013-02-22 02:09:00,
2013-02-21 21:19:00,24.4,3.5,30.32,North,8,0.0,0.0,40,0.00,CLR,,0.00,WeatherDisplay:10.37,2013-02-22 02:19:00,
2013-02-21 21:29:00,24.4,3.5,30.32,East,94,0.0,0.0,40,0.00,CLR,,0.00,WeatherDisplay:10.37,2013-02-22 02:29:00,
2013-02-21 21:39:00,23.4,2.0,30.32,NE,46,0.0,0.0,39,0.00,CLR,,0.00,WeatherDisplay:10.37,2013-02-22 02:39:00,
2013-02-21 21:49:00,23.0,3.3,30.32,NE,45,0.0,0.0,42,0.00,CLR,,0.00,WeatherDisplay:10.37,2013-02-22 02:49:00,
2013-02-21 21:59:00,23.5,3.8,30.32,ENE,68,0.0,0.0,42,0.00,CLR,,0.00,WeatherDisplay:10.37,2013-02-22 02:59:00,
2013-02-21 22:09:00,23.7,4.5,30.32,ENE,68,0.0,0.0,43,0.00,CLR,,0.00,WeatherDisplay:10.37,2013-02-22 03:09:00,
2013-02-21 22:19:00,24.9,5.6,30.32,SE,145,0.0,4.0,43,0.00,CLR,,0.00,WeatherDisplay:10.37,2013-02-22 03:19:00,
2013-02-21 22:29:00,23.9,4.1,30.32,SE,145,0.0,0.0,42,0.00,CLR,,0.00,WeatherDisplay:10.37,2013-02-22 03:29:00,
2013-02-21 22:39:00,23.5,4.3,30.34,ENE,74,0.0,4.0,43,0.00,CLR,,0.00,WeatherDisplay:10.37,2013-02-22 03:39:00,
2013-02-21 22:49:00,23.9,4.6,30.34,ESE,113,0.0,0.0,43,0.00,CLR,,0.00,WeatherDisplay:10.37,2013-02-22 03:49:00,
2013-02-21 22:59:00,23.5,4.3,30.32,East,84,0.0,0.0,43,0.00,CLR,,0.00,WeatherDisplay:10.37,2013-02-22 03:59:00,
2013-02-21 23:09:00,23.4,4.6,30.32,East,83,0.0,0.0,44,0.00,CLR,,0.00,WeatherDisplay:10.37,2013-02-22 04:09:00,
2013-02-21 23:19:00,23.7,5.0,30.32,East,82,0.0,0.0,44,0.00,CLR,,0.00,WeatherDisplay:10.37,2013-02-22 04:19:00,
2013-02-21 23:29:00,23.4,5.1,30.32,East,90,0.0,0.0,45,0.00,CLR,,0.00,WeatherDisplay:10.37,2013-02-22 04:29:00,
2013-02-21 23:39:00,23.2,5.4,30.32,ENE,68,0.0,0.0,46,0.00,CLR,,0.00,WeatherDisplay:10.37,2013-02-22 04:39:00,
2013-02-21 23:49:00,23.5,5.8,30.32,ENE,66,1.0,4.0,46,0.00,CLR,,0.00,WeatherDisplay:10.37,2013-02-22 04:49:00,
2013-02-21 23:59:00,23.2,5.9,30.32,East,79,0.0,4.0,47,0.00,CLR,,0.00,WeatherDisplay:10.37,2013-02-22 04:59:00,